Flight Track Log - Related Links

Times and Time Zones

All times are in EDT time to prevent confusion due to time zone crossing. See the AAL1771 flight status page for this flight to view local times or setup timezone preferences in your user account.

Time Position Orientation Groundspeed Altitude Reporting Facility
EDT Latitude Longitude Course Direction KTS MPH feet Rate Location/Type
Sat 08:16:41 AM 27.9500 -82.5500 349° North 171 197 1,300  Level Tampa TRACON
Sat 08:18:00 AM 28.1705 -82.6445 334° Northwest  Level FlightAware Approximate
Sat 08:19:00 AM 28.2765 -82.7023 334° Northwest  Level FlightAware Approximate
Sat 08:19:06 AM 27.8514 -82.6297 216° Southwest 205 236 5,900  Level Jacksonville Center
Sat 08:20:00 AM 28.3788 -82.7674 327° Northwest  Level FlightAware Approximate
Sat 08:20:06 AM 27.9264 -82.6647 338° Northwest 158 182 8,600  Level Jacksonville Center
Sat 08:21:00 AM 28.4921 -82.7833 North  Level FlightAware Approximate
Sat 08:21:06 AM 28.0119 -82.6858 348° North 202 232 10,900  Level Jacksonville Center
Sat 08:22:00 AM 28.6059 -82.8084 349° North  Level FlightAware Approximate
Sat 08:22:06 AM 28.1081 -82.7092 348° North 275 316 12,400  Level Jacksonville Center
Sat 08:23:06 AM 28.2125 -82.7347 348° North 341 392 14,900 2,700 Climbing Jacksonville Center
Sat 08:24:06 AM 28.3189 -82.7606 348° North 367 422 17,800 2,400 Climbing Jacksonville Center
Sat 08:25:06 AM 28.4233 -82.7886 347° North 374 430 19,700 1,750 Climbing Jacksonville Center
Sat 08:26:06 AM 28.5339 -82.8028 354° North 385 443 21,300 1,500 Climbing Jacksonville Center
Sat 08:27:06 AM 28.6425 -82.8286 348° North 392 451 22,700 1,150 Climbing Jacksonville Center
Sat 08:28:06 AM 28.7531 -82.8522 349° North 392 451 23,600 850 Climbing Jacksonville Center
Sat 08:29:06 AM 28.8700 -82.8403 North 398 458 24,400 1,000 Climbing Jacksonville Center
Sat 08:30:06 AM 28.9847 -82.7881 22° Northeast 413 475 25,600 1,300 Climbing Jacksonville Center
Sat 08:31:06 AM 29.1014 -82.7381 21° North 424 488 27,000 1,500 Climbing Jacksonville Center
Sat 08:32:06 AM 29.2183 -82.6903 20° North 432 497 28,600 1,300 Climbing Jacksonville Center
Sat 08:33:06 AM 29.3372 -82.6425 19° North 438 504 29,600 700 Climbing Jacksonville Center
Sat 08:34:06 AM 29.4583 -82.6136 12° North 443 510 30,000 200 Climbing Jacksonville Center
Sat 08:35:06 AM 29.5983 -82.6489 348° North 434 499 30,000 700 Level Jacksonville Center
Sat 08:36:06 AM 29.7172 -82.6775 348° North 444 511 31,400 1,200 Climbing Jacksonville Center
Sat 08:37:06 AM 29.8383 -82.7081 348° North 438 504 32,400 900 Climbing Jacksonville Center
Sat 08:38:06 AM 29.9533 -82.7344 349° North 433 498 33,200 800 Climbing Jacksonville Center
Sat 08:39:06 AM 30.0744 -82.7581 350° North 433 498 34,000 350 Climbing Jacksonville Center
Sat 08:40:06 AM 30.1914 -82.7869 348° North 428 493 33,900 -50 Descending Jacksonville Center
Sat 08:41:06 AM 30.3103 -82.8156 348° North 433 498 33,900  Level Jacksonville Center
Sat 08:42:06 AM 30.4272 -82.8444 348° North 428 493 33,900  Level Jacksonville Center
Sat 08:43:06 AM 30.5442 -82.8733 348° North 428 493 33,900  Level Jacksonville Center
Sat 08:44:06 AM 30.6633 -82.9047 347° North 428 493 33,900  Level Jacksonville Center
Sat 08:45:06 AM 30.7800 -82.9361 347° North 428 493 33,900 50 Level Jacksonville Center
Sat 08:46:06 AM 30.8636 -83.0089 323° Northwest 418 481 34,000 50 Climbing Jacksonville Center
Sat 08:47:06 AM 30.9428 -83.1178 310° West 418 481 34,000  Level Jacksonville Center
Sat 08:48:06 AM 31.0239 -83.2247 312° West 423 487 34,000  Level Jacksonville Center
Sat 08:49:06 AM 31.1008 -83.3317 310° West 428 493 34,000  Level Jacksonville Center
Sat 08:50:06 AM 31.1819 -83.4389 311° West 433 498 34,000  Level Jacksonville Center
Sat 08:51:06 AM 31.2628 -83.5439 312° West 433 498 34,000  Level Jacksonville Center
Sat 08:52:06 AM 31.3436 -83.6514 311° West 438 504 34,000  Level Jacksonville Center
Sat 08:54:19 AM 31.5211 -83.8975 310° West 447 514 34,000  Level Atlanta Center
Sat 08:55:19 AM 31.6047 -84.0072 312° West 447 514 34,000  Level Atlanta Center
Sat 08:56:19 AM 31.6861 -84.1169 311° West 447 514 34,000  Level Atlanta Center
Sat 08:57:19 AM 31.7694 -84.2269 312° West 447 514 34,000  Level Atlanta Center
Sat 08:58:19 AM 31.8569 -84.3444 311° West 447 514 34,000  Level Atlanta Center
Sat 08:59:19 AM 31.9381 -84.4550 311° West 447 514 34,000 -50 Level Atlanta Center
Sat 09:00:19 AM 32.0189 -84.5706 310° West 447 514 33,900  Descending Atlanta Center
Sat 09:01:19 AM 32.1019 -84.6789 312° West 447 514 34,000 50 Climbing Atlanta Center
Sat 09:02:19 AM 32.1806 -84.7897 310° West 447 514 34,000 -50 Level Atlanta Center
Sat 09:03:19 AM 32.2614 -84.8986 311° West 453 521 33,900  Descending Atlanta Center
Sat 09:04:19 AM 32.3439 -85.0100 311° West 448 516 34,000 50 Climbing Atlanta Center
Sat 09:05:19 AM 32.4244 -85.1242 310° West 453 521 34,000  Level Atlanta Center
Sat 09:06:19 AM 32.5108 -85.2408 311° West 453 521 34,000  Level Atlanta Center
Sat 09:07:19 AM 32.5914 -85.3506 311° West 452 520 34,000  Level Atlanta Center
Sat 09:08:19 AM 32.6714 -85.4650 310° West 452 520 34,000  Level Atlanta Center
Sat 09:09:19 AM 32.7556 -85.5850 310° West 452 520 34,000  Level Atlanta Center
Sat 09:10:19 AM 32.8375 -85.6978 311° West 452 520 34,000  Level Atlanta Center
Sat 09:11:19 AM 32.9172 -85.8131 310° West 452 520 34,000  Level Atlanta Center
Sat 09:12:19 AM 32.9992 -85.9286 310° West 452 520 34,000  Level Atlanta Center
Sat 09:13:19 AM 33.0847 -86.0519 310° West 462 532 34,000  Level Atlanta Center
Sat 09:14:19 AM 33.1686 -86.1656 311° West 467 537 34,000  Level Atlanta Center
Sat 09:15:19 AM 33.2519 -86.2894 309° West 467 537 34,000 -50 Level Atlanta Center
Sat 09:16:19 AM 33.3353 -86.4083 310° West 467 537 33,900  Descending Atlanta Center
Sat 09:17:19 AM 33.4297 -86.4806 327° Northwest 451 519 34,000 50 Climbing Atlanta Center
Sat 09:18:19 AM 33.5386 -86.5658 327° Northwest 457 526 34,000  Level Atlanta Center
Sat 09:19:19 AM 33.6475 -86.6514 327° Northwest 468 539 34,000  Level Atlanta Center
Sat 09:20:19 AM 33.7519 -86.7422 324° Northwest 468 539 34,000  Level Atlanta Center
Sat 09:22:38 AM 34.0117 -86.9692 324° Northwest 484 557 34,000  Level Memphis Center
Sat 09:23:38 AM 34.1183 -87.0531 327° Northwest 484 557 34,000  Level Memphis Center
Sat 09:24:38 AM 34.2208 -87.1444 324° Northwest 470 541 34,000  Level Memphis Center
Sat 09:25:38 AM 34.3144 -87.2189 327° Northwest 448 516 34,000 -50 Level Memphis Center
Sat 09:26:38 AM 34.4211 -87.3056 326° Northwest 453 521 33,900  Descending Memphis Center
Sat 09:27:38 AM 34.5256 -87.3975 324° Northwest 459 528 34,000 50 Climbing Memphis Center
Sat 09:28:38 AM 34.6406 -87.4969 325° Northwest 459 528 34,000  Level Memphis Center
Sat 09:29:38 AM 34.7425 -87.5847 325° Northwest 464 534 34,000 -50 Level Memphis Center
Sat 09:30:38 AM 34.8489 -87.6772 325° Northwest 464 534 33,900  Descending Memphis Center
Sat 09:31:38 AM 34.9406 -87.7606 323° Northwest 464 534 34,000 50 Climbing Memphis Center
Sat 09:32:38 AM 35.0550 -87.8533 326° Northwest 464 534 34,000  Level Memphis Center
Sat 09:33:38 AM 35.1486 -87.9394 323° Northwest 459 528 34,000  Level Memphis Center
Sat 09:34:38 AM 35.2525 -88.0281 325° Northwest 459 528 34,000  Level Memphis Center
Sat 09:35:38 AM 35.3564 -88.1192 324° Northwest 459 528 34,000  Level Memphis Center
Sat 09:36:38 AM 35.4600 -88.2056 326° Northwest 458 527 34,000  Level Memphis Center
Sat 09:37:38 AM 35.5617 -88.2975 324° Northwest 458 527 34,000  Level Memphis Center
Sat 09:38:38 AM 35.6633 -88.3894 324° Northwest 458 527 34,000 -50 Level Memphis Center
Sat 09:39:38 AM 35.7689 -88.4817 325° Northwest 458 527 33,900  Descending Memphis Center
Sat 09:40:38 AM 35.8706 -88.5717 324° Northwest 458 527 34,000 50 Climbing Memphis Center
Sat 09:41:38 AM 35.9739 -88.6642 324° Northwest 458 527 34,000 -50 Level Memphis Center
Sat 09:42:38 AM 36.0794 -88.7594 324° Northwest 458 527 33,900  Descending Memphis Center
Sat 09:43:38 AM 36.1786 -88.8503 324° Northwest 458 527 34,000 50 Climbing Memphis Center
Sat 09:44:38 AM 36.2839 -88.9436 324° Northwest 463 533 34,000 -50 Level Memphis Center
Sat 09:45:38 AM 36.3892 -89.0344 325° Northwest 463 533 33,900  Descending Memphis Center
Sat 09:46:38 AM 36.5069 -89.1408 324° Northwest 464 534 34,000 50 Climbing Memphis Center
Sat 09:47:38 AM 36.6100 -89.2375 323° Northwest 464 534 34,000  Level Memphis Center
Sat 09:48:38 AM 36.7108 -89.3319 323° Northwest 464 534 34,000  Level Memphis Center
Sat 09:49:38 AM 36.8117 -89.4292 322° Northwest 464 534 34,000  Level Memphis Center
Sat 09:50:38 AM 36.9103 -89.5214 323° Northwest 464 534 34,000  Level Memphis Center
Sat 09:51:38 AM 37.0108 -89.6164 323° Northwest 464 534 34,000  Level Memphis Center
Sat 09:53:10 AM 37.1503 -89.7403 325° Northwest 451 519 34,000  Level Kansas City Center
Sat 09:54:11 AM 37.2511 -89.8344 323° Northwest 452 520 34,000  Level Kansas City Center
Sat 09:55:15 AM 37.3494 -89.9283 323° Northwest 447 514 34,000  Level Kansas City Center
Sat 09:56:16 AM 37.4689 -90.0378 324° Northwest 443 510 34,000  Level Kansas City Center
Sat 09:57:17 AM 37.5581 -90.1233 323° Northwest 442 509 34,000 -48 Level Kansas City Center
Sat 09:58:21 AM 37.6556 -90.2153 323° Northwest 439 505 33,900  Descending Kansas City Center
Sat 09:59:21 AM 37.7611 -90.2947 329° Northwest 441 507 34,000  Climbing Kansas City Center
Sat 10:00:24 AM 37.8894 -90.3867 331° Northwest 443 510 33,900  Descending Kansas City Center
Sat 10:01:27 AM 37.9958 -90.4647 330° Northwest 442 509 34,000 48 Climbing Kansas City Center
Sat 10:02:28 AM 38.1047 -90.5419 331° Northwest 444 511 34,000  Level Kansas City Center
Sat 10:03:31 AM 38.2144 -90.6061 335° Northwest 444 511 34,000  Level Kansas City Center
Sat 10:04:32 AM 38.3339 -90.5661 15° North 444 511 34,000 -49 Level Kansas City Center
Sat 10:05:33 AM 38.4522 -90.5314 13° North 441 507 33,900  Descending Kansas City Center
Sat 10:06:36 AM 38.5950 -90.4875 14° North 438 504 34,000 -435 Climbing Kansas City Center
Sat 10:07:37 AM 38.7181 -90.4478 14° North 445 512 33,000 -1,210 Descending Kansas City Center
Sat 10:08:40 AM 38.8378 -90.4050 16° North 447 514 31,500 -1,452 Descending Kansas City Center
Sat 10:09:41 AM 38.9514 -90.3681 14° North 452 520 30,000 -1,230 Descending Kansas City Center
Sat 10:10:42 AM 39.0967 -90.3172 15° North 450 518 29,000 -480 Descending Kansas City Center
Sat 10:11:46 AM 39.2197 -90.2750 15° North 454 522 29,000  Level Kansas City Center
Sat 10:12:47 AM 39.3419 -90.2328 15° North 455 524 29,000  Level Kansas City Center
Sat 10:13:50 AM 39.4661 -90.1900 15° North 460 529 29,000  Level Kansas City Center
Sat 10:14:52 AM 39.5892 -90.1467 15° North 459 528 29,000  Level Kansas City Center
Sat 10:15:52 AM 39.7322 -90.0961 15° North 461 531 29,000  Level Kansas City Center
Sat 10:16:56 AM 39.8572 -90.0519 15° North 464 534 29,000  Level Kansas City Center
Sat 10:17:57 AM 39.9831 -90.0081 15° North 466 536 29,000  Level Kansas City Center
Sat 10:19:00 AM 40.1083 -89.9639 15° North 466 536 29,000 -192 Level Kansas City Center
Sat 10:20:02 AM 40.2314 -89.9208 15° North 461 531 28,600 -976 Descending Kansas City Center
Sat 10:21:03 AM 40.3500 -89.8786 15° North 446 513 27,000 -1,800 Descending Kansas City Center
Sat 10:21:52 AM 40.4694 -89.8361 15° North 437 503 25,300 -1,514 Descending Chicago Center
Sat 10:22:54 AM 40.5817 -89.7947 16° North 425 489 24,200 -629 Descending Chicago Center
Sat 10:23:56 AM 40.6953 -89.7564 14° North 423 487 24,000 -97 Descending Chicago Center
Sat 10:24:58 AM 40.8056 -89.7169 15° North 415 478 24,000  Level Chicago Center
Sat 10:26:00 AM 40.9181 -89.6758 15° North 417 480 24,000  Level Chicago Center
Sat 10:27:03 AM 41.0503 -89.6217 17° North 456 525 24,000 -384 Level Chicago Center
Sat 10:28:05 AM 41.1206 -89.4772 57° Northeast 475 547 23,200 -1,548 Descending Chicago Center
Sat 10:29:07 AM 41.1911 -89.3361 56° Northeast 463 533 20,800 -2,468 Descending Chicago Center
Sat 10:30:09 AM 41.2664 -89.1897 56° Northeast 451 519 18,100 -2,371 Descending Chicago Center
Sat 10:31:11 AM 41.3325 -89.0564 57° Northeast 439 505 15,900 -1,839 Descending Chicago Center
Sat 10:32:13 AM 41.3994 -88.9272 55° Northeast 426 490 14,300 -2,081 Descending Chicago Center
Sat 10:33:15 AM 41.4744 -88.7814 56° Northeast 403 464 11,600 -1,597 Descending Chicago Center
Sat 10:34:17 AM 41.5317 -88.6575 58° Northeast 395 455 11,000 -290 Descending Chicago Center
Sat 10:35:19 AM 41.5797 -88.5331 63° Northeast 382 440 11,000 -194 Level Chicago Center
Sat 10:36:21 AM 41.6372 -88.4161 57° Northeast 378 435 10,600 -484 Descending Chicago Center
Sat 10:37:23 AM 41.6989 -88.3094 52° Northeast 364 419 10,000 -387 Descending Chicago Center
Sat 10:38:25 AM 41.7547 -88.2136 52° Northeast 331 381 9,800 -823 Descending Chicago Center
Sat 10:39:27 AM 41.8144 -88.1103 52° Northeast 296 341 8,300 -1,210 Descending Chicago Center
Sat 10:40:29 AM 41.8372 -88.0081 73° East 293 337 7,300 -624 Descending Chicago Center
Sat 10:41:32 AM 41.8581 -87.9167 73° East 270 311 7,000 -288 Descending Chicago Center
Sat 10:42:34 AM 41.8747 -87.8394 74° East 229 264 6,700 -677 Descending Chicago Center
Sat 10:43:36 AM 41.8833 -87.7667 81° East 208 239 5,600 -1,065 Descending Chicago Center
Sat 10:44:38 AM 41.8850 -87.6925 88° East 201 231 4,500 -726 Descending Chicago Center
Sat 10:45:40 AM 41.9097 -87.6347 60° Northeast 198 228 4,100 -387 Descending Chicago Center

Login

Don't have an account? Register now (free) for customized features, flight alerts, and more!